createdAt,value
2018-03-31T00:00:27.469Z,57.30
2018-03-31T00:02:55.239Z,57.70
2018-03-31T00:05:22.589Z,58.10
2018-03-31T00:07:50.051Z,58.40
2018-03-31T00:10:17.405Z,59.20
2018-03-31T00:12:44.757Z,59.70
2018-03-31T00:15:12.108Z,60.00
2018-03-31T00:17:39.769Z,62.10
2018-03-31T00:20:07.496Z,63.00
2018-03-31T00:22:35.085Z,63.40
2018-03-31T00:25:02.859Z,64.00
2018-03-31T00:27:30.103Z,65.20
2018-03-31T00:29:57.574Z,66.60
2018-03-31T00:32:24.919Z,67.60
2018-03-31T00:34:52.268Z,68.80
2018-03-31T00:37:19.524Z,70.10
2018-03-31T00:39:47.285Z,70.40
2018-03-31T00:42:14.743Z,71.30
2018-03-31T00:44:42.130Z,71.90
2018-03-31T00:47:09.457Z,72.50
2018-03-31T00:49:36.908Z,73.40
2018-03-31T00:52:04.389Z,73.70
2018-03-31T00:54:31.718Z,74.70
2018-03-31T00:56:58.968Z,75.10
2018-03-31T00:59:26.734Z,75.30
2018-03-31T01:01:54.294Z,76.00
2018-03-31T01:04:21.954Z,76.20
2018-03-31T01:06:49.312Z,76.50
2018-03-31T01:09:16.863Z,76.50
2018-03-31T01:11:44.247Z,77.00
2018-03-31T01:14:11.778Z,77.60
2018-03-31T01:16:39.133Z,77.20
2018-03-31T01:19:06.787Z,77.20
2018-03-31T01:21:34.249Z,77.20
2018-03-31T01:24:01.498Z,77.00
2018-03-31T01:26:28.772Z,76.80
2018-03-31T01:28:56.331Z,76.60
2018-03-31T01:31:24.689Z,77.60
2018-03-31T01:33:52.284Z,77.60
2018-03-31T01:36:20.226Z,77.40
2018-03-31T01:38:47.875Z,77.30
2018-03-31T01:41:15.449Z,76.70
2018-03-31T01:43:42.913Z,76.90
2018-03-31T01:46:10.370Z,77.10
2018-03-31T01:48:37.654Z,77.10
2018-03-31T01:51:05.989Z,77.20
2018-03-31T01:53:33.350Z,77.20
2018-03-31T01:56:01.204Z,76.70
2018-03-31T01:58:28.878Z,77.20
2018-03-31T02:00:56.340Z,77.60
2018-03-31T02:03:24.384Z,77.50
2018-03-31T02:05:52.050Z,77.40
2018-03-31T02:08:19.502Z,76.80
2018-03-31T02:10:46.654Z,77.10
2018-03-31T02:13:14.030Z,76.80
2018-03-31T02:15:41.570Z,76.70
2018-03-31T02:18:09.350Z,77.50
2018-03-31T02:20:36.484Z,77.30
2018-03-31T02:23:03.769Z,76.90
2018-03-31T02:25:31.309Z,76.60
2018-03-31T02:27:59.172Z,76.60
2018-03-31T02:30:26.406Z,76.20
2018-03-31T02:32:53.869Z,76.30
2018-03-31T02:35:21.421Z,77.00
2018-03-31T02:37:49.318Z,78.20
2018-03-31T02:40:17.084Z,78.20
2018-03-31T02:42:45.030Z,78.10
2018-03-31T02:45:12.414Z,78.30
2018-03-31T02:47:40.678Z,78.20
2018-03-31T02:50:08.431Z,78.10
2018-03-31T02:52:35.793Z,78.60
2018-03-31T02:55:03.126Z,78.40
2018-03-31T02:57:30.805Z,78.60
2018-03-31T02:59:58.247Z,78.80
2018-03-31T03:02:25.519Z,78.70
2018-03-31T03:04:53.070Z,78.30
2018-03-31T03:07:20.617Z,78.00
2018-03-31T03:09:47.990Z,78.30
2018-03-31T03:12:16.571Z,78.90
2018-03-31T03:14:44.631Z,79.20
2018-03-31T03:17:12.274Z,79.90
2018-03-31T03:19:39.650Z,79.30
2018-03-31T03:22:07.005Z,79.40
2018-03-31T03:24:34.147Z,79.30
2018-03-31T03:27:01.524Z,79.40
2018-03-31T03:29:29.187Z,79.30
2018-03-31T03:31:56.510Z,80.30
2018-03-31T03:34:23.664Z,80.00
2018-03-31T03:36:51.130Z,80.60
2018-03-31T03:39:18.509Z,81.10
2018-03-31T03:41:46.555Z,80.60
2018-03-31T03:44:14.109Z,80.60
2018-03-31T03:46:41.860Z,80.20
2018-03-31T03:49:09.210Z,80.00
2018-03-31T03:51:37.080Z,79.70
2018-03-31T03:54:04.350Z,80.10
2018-03-31T03:56:31.990Z,80.00
2018-03-31T03:58:59.477Z,80.60
2018-03-31T04:01:26.710Z,80.60
2018-03-31T04:03:54.369Z,80.40
2018-03-31T04:06:21.985Z,80.30
2018-03-31T04:08:49.590Z,80.60
2018-03-31T04:11:17.908Z,80.80
2018-03-31T04:13:46.049Z,80.10
2018-03-31T04:16:13.290Z,80.10
2018-03-31T04:18:41.050Z,80.10
2018-03-31T04:21:08.630Z,80.40
2018-03-31T04:23:35.875Z,80.10
2018-03-31T04:26:03.230Z,80.10
2018-03-31T04:28:30.565Z,80.50
2018-03-31T04:30:57.926Z,81.10
2018-03-31T04:33:25.390Z,80.80
2018-03-31T04:35:52.527Z,81.10
2018-03-31T04:38:20.047Z,81.00
2018-03-31T04:40:47.750Z,81.90
2018-03-31T04:43:15.310Z,81.50
2018-03-31T04:45:42.990Z,81.40
2018-03-31T04:48:10.230Z,81.60
2018-03-31T04:50:38.027Z,81.00
2018-03-31T04:53:06.570Z,81.20
2018-03-31T04:55:33.930Z,81.20
2018-03-31T04:58:01.530Z,81.70
2018-03-31T05:00:30.134Z,81.40
2018-03-31T05:02:57.448Z,81.30
2018-03-31T05:05:24.882Z,80.90
2018-03-31T05:07:52.230Z,82.10
2018-03-31T05:10:19.508Z,81.00
2018-03-31T05:12:47.280Z,80.50
2018-03-31T05:15:15.630Z,80.60
2018-03-31T05:17:43.090Z,80.50
2018-03-31T05:20:10.349Z,80.50
2018-03-31T05:22:38.045Z,80.10
2018-03-31T05:25:06.371Z,80.30
2018-03-31T05:27:34.150Z,80.30
2018-03-31T05:30:01.482Z,79.70
2018-03-31T05:32:28.879Z,80.40
2018-03-31T05:34:57.335Z,79.70
2018-03-31T05:37:24.890Z,79.60
2018-03-31T05:39:52.349Z,79.80
2018-03-31T05:42:19.810Z,79.80
2018-03-31T05:44:47.443Z,80.30
2018-03-31T05:47:15.129Z,80.30
2018-03-31T05:49:42.375Z,80.40
2018-03-31T05:52:09.729Z,80.50
2018-03-31T05:54:37.330Z,80.70
2018-03-31T05:57:05.349Z,80.90
2018-03-31T05:59:32.610Z,80.90
2018-03-31T06:02:00.070Z,80.10
2018-03-31T06:04:27.416Z,80.00
2018-03-31T06:06:55.069Z,80.20
2018-03-31T06:09:22.730Z,80.00
2018-03-31T06:11:50.210Z,80.50
2018-03-31T06:14:17.650Z,80.40
2018-03-31T06:16:44.805Z,80.90
2018-03-31T06:19:12.369Z,80.20
2018-03-31T06:21:39.930Z,79.80
2018-03-31T06:24:07.164Z,79.90
2018-03-31T06:26:34.733Z,80.00
2018-03-31T06:29:02.490Z,79.30
2018-03-31T06:31:30.065Z,79.20
2018-03-31T06:33:57.309Z,79.10
2018-03-31T06:36:24.662Z,79.40
2018-03-31T06:38:52.104Z,79.70
2018-03-31T06:41:19.781Z,79.20
2018-03-31T06:43:47.033Z,79.40
2018-03-31T06:46:14.590Z,79.90
2018-03-31T06:48:41.846Z,80.00
2018-03-31T06:51:09.510Z,80.20
2018-03-31T06:53:37.157Z,80.20
2018-03-31T06:56:04.432Z,79.70
2018-03-31T06:58:31.850Z,79.40
2018-03-31T07:00:59.025Z,79.40
2018-03-31T07:03:26.405Z,79.70
2018-03-31T07:05:53.996Z,79.40
2018-03-31T07:08:21.574Z,79.70
2018-03-31T07:10:49.250Z,79.70
2018-03-31T07:13:16.810Z,78.50
2018-03-31T07:15:43.956Z,77.30
2018-03-31T07:18:11.231Z,77.50
2018-03-31T07:20:38.562Z,77.50
2018-03-31T07:23:05.929Z,77.20
2018-03-31T07:25:33.293Z,74.60
2018-03-31T07:28:00.733Z,74.50
2018-03-31T07:30:28.090Z,75.10
2018-03-31T07:32:55.449Z,75.00
2018-03-31T07:35:23.325Z,74.50
2018-03-31T07:37:50.887Z,74.30
2018-03-31T07:40:18.230Z,73.20
2018-03-31T07:42:45.570Z,73.60
2018-03-31T07:45:13.019Z,72.70
2018-03-31T07:47:40.390Z,71.70
2018-03-31T07:50:07.924Z,72.00
2018-03-31T07:52:35.309Z,72.50
2018-03-31T07:55:02.442Z,70.80
2018-03-31T07:57:30.010Z,70.70
2018-03-31T07:59:57.561Z,69.90
2018-03-31T08:02:24.945Z,69.90
2018-03-31T08:04:52.493Z,69.70
2018-03-31T08:07:20.338Z,70.70
2018-03-31T08:09:48.210Z,70.50
2018-03-31T08:12:15.769Z,70.50
2018-03-31T08:14:43.330Z,71.00
2018-03-31T08:17:10.784Z,71.40
2018-03-31T08:19:38.350Z,72.20
2018-03-31T08:22:05.781Z,72.70
2018-03-31T08:24:33.309Z,72.80
2018-03-31T08:27:01.318Z,72.50
2018-03-31T08:29:28.776Z,72.50
2018-03-31T08:31:56.539Z,73.90
2018-03-31T08:34:24.009Z,74.40
2018-03-31T08:36:51.164Z,74.20
2018-03-31T08:39:18.424Z,74.60
2018-03-31T08:41:45.914Z,75.20
2018-03-31T08:44:15.462Z,76.40
2018-03-31T08:46:42.727Z,76.30
2018-03-31T08:49:10.091Z,76.80
2018-03-31T08:51:37.555Z,77.60
2018-03-31T08:54:05.089Z,77.50
2018-03-31T08:56:32.642Z,77.70
2018-03-31T08:58:59.992Z,77.20
2018-03-31T09:01:27.361Z,77.00
2018-03-31T09:03:54.540Z,77.10
2018-03-31T09:06:22.792Z,76.90
2018-03-31T09:08:50.350Z,76.90
2018-03-31T09:11:17.709Z,77.00
2018-03-31T09:13:44.966Z,77.20
2018-03-31T09:16:12.515Z,77.40
2018-03-31T09:18:39.833Z,77.00
2018-03-31T09:21:07.630Z,76.70
2018-03-31T09:23:35.091Z,77.00
2018-03-31T09:26:02.651Z,76.50
2018-03-31T09:28:30.005Z,76.40
2018-03-31T09:30:57.649Z,76.30
2018-03-31T09:33:24.909Z,76.00
2018-03-31T09:35:52.589Z,76.40
2018-03-31T09:38:19.935Z,75.80
2018-03-31T09:40:47.580Z,75.20
2018-03-31T09:43:15.051Z,74.60
2018-03-31T09:45:42.610Z,74.80
2018-03-31T09:48:09.851Z,74.30
2018-03-31T09:50:37.549Z,74.90
2018-03-31T09:53:05.692Z,76.40
2018-03-31T09:55:33.252Z,76.30
2018-03-31T09:58:00.612Z,75.90
2018-03-31T10:00:33.594Z,76.20
2018-03-31T10:03:02.788Z,77.80
2018-03-31T10:05:30.553Z,77.70
2018-03-31T10:07:58.855Z,79.00
2018-03-31T10:10:27.413Z,78.20
2018-03-31T10:12:54.972Z,78.20
2018-03-31T10:15:22.819Z,79.00
2018-03-31T10:17:50.788Z,78.10
2018-03-31T10:20:18.829Z,78.30
2018-03-31T10:22:46.252Z,78.30
2018-03-31T10:25:14.196Z,77.30
2018-03-31T10:27:41.972Z,77.00
2018-03-31T10:30:09.732Z,75.40
2018-03-31T10:32:37.500Z,75.70
2018-03-31T10:35:05.053Z,76.10
2018-03-31T10:37:32.908Z,75.40
2018-03-31T10:40:00.269Z,75.40
2018-03-31T10:42:28.036Z,75.90
2018-03-31T10:44:55.372Z,76.80
2018-03-31T10:47:22.917Z,77.80
2018-03-31T10:49:50.588Z,80.00
2018-03-31T10:52:18.308Z,79.80
2018-03-31T10:54:46.332Z,80.90
2018-03-31T10:57:13.812Z,80.90
2018-03-31T10:59:41.973Z,81.10
2018-03-31T11:02:09.228Z,81.10
2018-03-31T11:04:36.773Z,80.20
2018-03-31T11:07:04.028Z,80.60
2018-03-31T11:09:31.590Z,80.70
2018-03-31T11:11:58.980Z,79.90
2018-03-31T11:14:27.031Z,78.00
2018-03-31T11:16:54.583Z,78.00
2018-03-31T11:19:22.132Z,77.00
2018-03-31T11:21:49.814Z,76.90
2018-03-31T11:24:17.148Z,77.40
2018-03-31T11:26:44.597Z,77.10
2018-03-31T11:29:12.356Z,77.00
2018-03-31T11:31:39.932Z,77.70
2018-03-31T11:34:07.298Z,77.30
2018-03-31T11:36:34.948Z,78.20
2018-03-31T11:39:02.332Z,79.40
2018-03-31T11:41:30.989Z,82.20
2018-03-31T11:43:58.468Z,82.10
2018-03-31T11:46:26.548Z,84.00
2018-03-31T11:48:55.516Z,84.20
2018-03-31T11:51:22.868Z,84.20
2018-03-31T11:53:50.412Z,84.50
2018-03-31T11:56:17.868Z,84.60
2018-03-31T11:58:45.333Z,85.00
2018-03-31T12:01:12.892Z,85.60
2018-03-31T12:03:40.860Z,85.60
2018-03-31T12:06:09.028Z,85.70
2018-03-31T12:08:36.892Z,85.80
2018-03-31T12:11:04.172Z,85.60
2018-03-31T12:13:31.624Z,86.80
2018-03-31T12:16:00.719Z,86.30
2018-03-31T12:18:28.668Z,86.40
2018-03-31T12:20:56.995Z,87.90
2018-03-31T12:23:24.399Z,87.90
2018-03-31T12:25:51.820Z,87.20
2018-03-31T12:28:19.412Z,86.80
2018-03-31T12:30:47.068Z,86.50
2018-03-31T12:33:14.434Z,87.10
2018-03-31T12:35:42.612Z,87.30
2018-03-31T12:38:10.092Z,87.30
2018-03-31T12:40:38.229Z,87.20
2018-03-31T12:43:05.787Z,87.20
2018-03-31T12:45:33.357Z,87.30
2018-03-31T12:48:00.708Z,87.10
2018-03-31T12:50:28.161Z,86.30
2018-03-31T12:52:55.829Z,85.90
2018-03-31T12:55:23.901Z,86.90
2018-03-31T12:57:51.548Z,87.40
2018-03-31T13:00:19.172Z,88.10
2018-03-31T13:02:46.773Z,88.70
2018-03-31T13:05:14.426Z,89.10
2018-03-31T13:07:41.986Z,89.10
2018-03-31T13:10:09.355Z,88.10
2018-03-31T13:12:36.914Z,87.50
2018-03-31T13:15:04.565Z,87.90
2018-03-31T13:17:32.531Z,87.60
2018-03-31T13:20:00.099Z,86.70
2018-03-31T13:22:28.602Z,86.10
2018-03-31T13:24:56.019Z,85.30
2018-03-31T13:27:23.394Z,85.20
2018-03-31T13:29:50.947Z,86.10
2018-03-31T13:32:18.723Z,86.10
2018-03-31T13:34:46.515Z,85.70
2018-03-31T13:37:14.684Z,85.90
2018-03-31T13:39:43.132Z,86.10
2018-03-31T13:42:10.986Z,86.00
2018-03-31T13:44:38.567Z,86.00
2018-03-31T13:47:06.218Z,87.80
2018-03-31T13:49:33.779Z,86.70
2018-03-31T13:52:01.532Z,85.20
2018-03-31T13:54:28.892Z,83.90
2018-03-31T13:56:56.868Z,83.50
2018-03-31T13:59:24.549Z,83.00
2018-03-31T14:01:52.691Z,83.80
2018-03-31T14:04:20.450Z,83.70
2018-03-31T14:06:47.811Z,83.60
2018-03-31T14:09:15.387Z,85.00
2018-03-31T14:11:42.731Z,85.40
2018-03-31T14:14:10.396Z,86.00
2018-03-31T14:16:37.693Z,86.20
2018-03-31T14:19:05.093Z,86.80
2018-03-31T14:21:32.748Z,88.60
2018-03-31T14:24:00.215Z,90.00
2018-03-31T14:26:27.675Z,90.70
2018-03-31T14:28:55.131Z,90.70
2018-03-31T14:31:22.786Z,90.60
2018-03-31T14:33:50.669Z,91.50
2018-03-31T14:36:18.306Z,91.70
2018-03-31T14:38:45.692Z,92.00
2018-03-31T14:41:13.237Z,91.70
2018-03-31T14:43:42.132Z,92.20
2018-03-31T14:46:09.691Z,92.20
2018-03-31T14:48:37.033Z,92.50
2018-03-31T14:51:04.396Z,93.10
2018-03-31T14:53:31.756Z,93.50
2018-03-31T14:56:00.236Z,93.80
2018-03-31T14:58:27.587Z,93.80
2018-03-31T15:00:54.933Z,93.60
2018-03-31T15:03:22.892Z,93.40
2018-03-31T15:05:50.657Z,93.40
2018-03-31T15:08:18.333Z,93.40
2018-03-31T15:10:45.996Z,93.30
2018-03-31T15:13:13.355Z,93.30
2018-03-31T15:15:40.860Z,93.80
2018-03-31T15:18:08.452Z,93.60
2018-03-31T15:20:35.812Z,93.30
2018-03-31T15:23:03.171Z,93.10
2018-03-31T15:25:30.461Z,93.10
2018-03-31T15:27:58.275Z,93.30
2018-03-31T15:30:25.619Z,93.40
2018-03-31T15:32:53.186Z,93.60
2018-03-31T15:35:20.546Z,93.50
2018-03-31T15:37:49.868Z,93.80
2018-03-31T15:40:18.531Z,93.70
2018-03-31T15:42:46.203Z,93.50
2018-03-31T15:45:13.867Z,93.40
2018-03-31T15:47:42.891Z,93.50
2018-03-31T15:50:11.130Z,93.60
2018-03-31T15:52:38.572Z,93.60
2018-03-31T15:55:06.155Z,94.10
2018-03-31T15:57:34.027Z,93.70
2018-03-31T16:00:01.779Z,93.80
2018-03-31T16:02:30.052Z,94.40
2018-03-31T16:04:57.443Z,94.40
2018-03-31T16:07:25.771Z,95.80
2018-03-31T16:09:53.234Z,95.80
2018-03-31T16:12:21.107Z,95.70
2018-03-31T16:14:48.874Z,95.50
2018-03-31T16:17:16.635Z,95.40
2018-03-31T16:19:44.395Z,95.40
2018-03-31T16:22:12.255Z,95.10
2018-03-31T16:24:39.919Z,94.80
2018-03-31T16:27:07.492Z,94.70
2018-03-31T16:29:34.932Z,94.90
